createdAt,value
2017-08-23T00:02:23.532Z,4.15
2017-08-23T00:04:51.052Z,3.75
2017-08-23T00:07:18.550Z,4.15
2017-08-23T00:09:46.057Z,3.85
2017-08-23T00:12:13.568Z,3.80
2017-08-23T00:14:41.084Z,4.25
2017-08-23T00:17:08.585Z,3.40
2017-08-23T00:19:36.089Z,3.95
2017-08-23T00:22:03.600Z,3.37
2017-08-23T00:24:31.111Z,3.72
2017-08-23T00:26:58.620Z,4.90
2017-08-23T00:29:26.132Z,3.95
2017-08-23T00:31:53.642Z,3.58
2017-08-23T00:34:21.152Z,4.50
2017-08-23T00:36:48.649Z,4.32
2017-08-23T00:39:16.159Z,4.10
2017-08-23T00:41:43.668Z,4.25
2017-08-23T00:44:11.172Z,3.85
2017-08-23T00:46:38.685Z,4.25
2017-08-23T00:49:06.188Z,3.87
2017-08-23T00:51:33.688Z,3.72
2017-08-23T00:54:01.204Z,3.92
2017-08-23T00:56:28.708Z,3.92
2017-08-23T00:58:56.209Z,3.62
2017-08-23T01:01:23.713Z,4.45
2017-08-23T01:03:51.217Z,4.30
2017-08-23T01:06:18.725Z,3.90
2017-08-23T01:08:46.232Z,4.68
2017-08-23T01:11:15.672Z,3.78
2017-08-23T01:13:43.177Z,4.68
2017-08-23T01:16:10.676Z,4.43
2017-08-23T01:18:39.185Z,4.68
2017-08-23T01:21:06.688Z,4.05
2017-08-23T01:23:36.144Z,4.50
2017-08-23T01:26:03.646Z,4.57
2017-08-23T01:28:31.144Z,4.78
2017-08-23T01:30:58.644Z,4.55
2017-08-23T01:33:26.148Z,4.37
2017-08-23T01:35:53.654Z,4.00
2017-08-23T01:38:21.164Z,4.80
2017-08-23T01:40:48.670Z,5.18
2017-08-23T01:43:16.172Z,5.05
2017-08-23T01:45:43.677Z,4.10
2017-08-23T01:48:11.193Z,4.95
2017-08-23T01:50:38.693Z,4.53
2017-08-23T01:53:08.152Z,5.03
2017-08-23T01:55:35.660Z,5.35
2017-08-23T01:58:03.182Z,5.28
2017-08-23T02:00:31.344Z,4.50
2017-08-23T02:02:58.857Z,4.90
2017-08-23T02:05:26.364Z,5.60
2017-08-23T02:07:53.869Z,4.50
2017-08-23T02:10:21.372Z,4.30
2017-08-23T02:12:48.889Z,4.43
2017-08-23T02:15:16.401Z,4.53
2017-08-23T02:17:43.909Z,4.43
2017-08-23T02:20:11.422Z,4.55
2017-08-23T02:22:38.929Z,4.97
2017-08-23T02:25:06.446Z,5.57
2017-08-23T02:27:33.963Z,4.82
2017-08-23T02:30:01.478Z,4.95
2017-08-23T02:32:28.997Z,5.55
2017-08-23T02:34:56.495Z,4.97
2017-08-23T02:37:23.996Z,4.47
2017-08-23T02:39:51.514Z,4.87
2017-08-23T02:42:19.022Z,5.57
2017-08-23T02:44:46.530Z,5.55
2017-08-23T02:47:14.028Z,6.20
2017-08-23T02:49:41.536Z,5.93
2017-08-23T02:52:09.044Z,5.80
2017-08-23T02:54:36.589Z,5.55
2017-08-23T02:57:04.096Z,5.25
2017-08-23T02:59:31.595Z,5.65
2017-08-23T03:01:59.100Z,5.70
2017-08-23T03:04:26.601Z,4.95
2017-08-23T03:06:54.105Z,5.43
2017-08-23T03:09:21.444Z,5.07
2017-08-23T03:11:49.619Z,5.20
2017-08-23T03:14:17.164Z,5.47
2017-08-23T03:16:45.675Z,5.50
2017-08-23T03:19:14.194Z,5.25
2017-08-23T03:21:43.653Z,5.10
2017-08-23T03:24:12.145Z,5.60
2017-08-23T03:26:39.660Z,5.32
2017-08-23T03:29:07.181Z,4.95
2017-08-23T03:31:34.724Z,5.55
2017-08-23T03:34:02.224Z,4.85
2017-08-23T03:36:29.724Z,4.93
2017-08-23T03:38:57.224Z,4.75
2017-08-23T03:41:24.744Z,4.70
2017-08-23T03:43:52.245Z,4.20
2017-08-23T03:46:19.761Z,5.20
2017-08-23T03:48:47.268Z,5.40
2017-08-23T03:51:14.768Z,4.47
2017-08-23T03:53:42.284Z,5.68
2017-08-23T03:56:09.784Z,4.65
2017-08-23T03:58:37.396Z,4.65
2017-08-23T04:01:04.902Z,5.85
2017-08-23T04:03:32.421Z,4.45
2017-08-23T04:05:59.920Z,4.70
2017-08-23T04:08:27.432Z,5.20
2017-08-23T04:10:54.937Z,5.28
2017-08-23T04:13:22.449Z,5.30
2017-08-23T04:15:49.948Z,5.10
2017-08-23T04:18:17.457Z,5.37
2017-08-23T04:20:44.977Z,5.55
2017-08-23T04:23:12.485Z,5.65
2017-08-23T04:25:39.992Z,5.25
2017-08-23T04:28:09.466Z,5.82
2017-08-23T04:30:36.973Z,5.25
2017-08-23T04:33:04.478Z,4.95
2017-08-23T04:35:31.985Z,4.97
2017-08-23T04:37:59.484Z,5.47
2017-08-23T04:40:27.024Z,5.30
2017-08-23T04:42:54.532Z,4.47
2017-08-23T04:45:22.045Z,4.60
2017-08-23T04:47:49.556Z,4.15
2017-08-23T04:50:17.071Z,4.65
2017-08-23T04:52:44.588Z,4.30
2017-08-23T04:55:12.097Z,4.65
2017-08-23T04:57:39.613Z,4.37
2017-08-23T05:00:07.112Z,3.83
2017-08-23T05:02:35.081Z,4.20
2017-08-23T05:05:02.585Z,3.85
2017-08-23T05:07:30.088Z,4.53
2017-08-23T05:09:59.573Z,3.70
2017-08-23T05:12:28.088Z,3.60
2017-08-23T05:14:56.605Z,3.60
2017-08-23T05:17:24.108Z,3.08
2017-08-23T05:19:51.617Z,3.50
2017-08-23T05:22:19.124Z,3.58
2017-08-23T05:24:46.644Z,4.10
2017-08-23T05:27:14.150Z,4.78
2017-08-23T05:29:41.671Z,3.97
2017-08-23T05:32:09.173Z,4.68
2017-08-23T05:34:38.620Z,4.28
2017-08-23T05:37:06.133Z,3.92
2017-08-23T05:39:33.664Z,3.50
2017-08-23T05:42:01.168Z,3.28
2017-08-23T05:44:28.676Z,4.00
2017-08-23T05:46:56.180Z,3.47
2017-08-23T05:49:23.686Z,3.58
2017-08-23T05:51:51.194Z,3.78
2017-08-23T05:54:19.702Z,3.53
2017-08-23T05:56:48.216Z,3.83
2017-08-23T05:59:15.720Z,3.25
2017-08-23T06:01:43.224Z,3.45
2017-08-23T06:04:12.665Z,3.00
2017-08-23T06:06:40.170Z,3.30
2017-08-23T06:09:07.675Z,3.50
2017-08-23T06:11:34.896Z,3.27
2017-08-23T06:14:02.392Z,2.80
2017-08-23T06:16:29.618Z,3.00
2017-08-23T06:18:56.833Z,2.80
2017-08-23T06:21:25.999Z,3.30
2017-08-23T06:23:53.220Z,3.00
2017-08-23T06:26:20.436Z,3.80
2017-08-23T06:28:47.656Z,2.90
2017-08-23T06:31:14.872Z,2.60
2017-08-23T06:33:41.904Z,2.97
2017-08-23T06:36:09.124Z,3.07
2017-08-23T06:38:36.341Z,3.03
2017-08-23T06:41:03.559Z,2.63
2017-08-23T06:43:30.781Z,3.27
2017-08-23T06:45:59.925Z,3.13
2017-08-23T06:48:26.961Z,3.50
2017-08-23T06:50:54.177Z,3.07
2017-08-23T06:53:21.397Z,2.90
2017-08-23T06:55:48.620Z,2.83
2017-08-23T06:58:15.845Z,2.80
2017-08-23T07:00:43.062Z,3.23
2017-08-23T07:03:10.281Z,2.90
2017-08-23T07:05:37.500Z,3.67
2017-08-23T07:08:04.720Z,2.47
2017-08-23T07:10:31.941Z,2.63
2017-08-23T07:13:01.122Z,3.00
2017-08-23T07:15:28.349Z,3.43
2017-08-23T07:17:55.568Z,3.03
2017-08-23T07:20:22.792Z,2.83
2017-08-23T07:22:50.010Z,3.07
2017-08-23T07:25:17.228Z,3.03
2017-08-23T07:27:44.441Z,3.40
2017-08-23T07:30:11.661Z,3.37
2017-08-23T07:32:38.884Z,3.50
2017-08-23T07:35:06.108Z,3.30
2017-08-23T07:37:33.328Z,3.13
2017-08-23T07:40:00.554Z,3.20
2017-08-23T07:42:27.775Z,3.10
2017-08-23T07:44:55.021Z,3.17
2017-08-23T07:47:22.236Z,3.10
2017-08-23T07:49:49.457Z,3.27
2017-08-23T07:52:16.712Z,3.27
2017-08-23T07:54:43.933Z,2.83
2017-08-23T07:57:11.153Z,2.83
2017-08-23T07:59:38.377Z,3.00
2017-08-23T08:02:05.600Z,2.80
2017-08-23T08:04:32.825Z,3.40
2017-08-23T08:07:00.037Z,2.80
2017-08-23T08:09:27.252Z,2.93
2017-08-23T08:11:54.473Z,3.30
2017-08-23T08:14:21.697Z,3.57
2017-08-23T08:16:48.920Z,2.80
2017-08-23T08:19:16.141Z,3.13
2017-08-23T08:21:43.365Z,2.43
2017-08-23T08:24:10.580Z,3.47
2017-08-23T08:26:37.617Z,3.07
2017-08-23T08:29:04.832Z,2.60
2017-08-23T08:31:32.047Z,3.07
2017-08-23T08:33:59.265Z,3.17
2017-08-23T08:36:26.484Z,2.70
2017-08-23T08:38:53.708Z,2.93
2017-08-23T08:41:20.930Z,4.00
2017-08-23T08:43:48.152Z,2.50
2017-08-23T08:46:15.364Z,3.47
2017-08-23T08:48:42.596Z,2.90
2017-08-23T08:51:09.812Z,2.80
2017-08-23T08:53:37.037Z,3.20
2017-08-23T08:56:04.253Z,3.23
2017-08-23T08:58:33.396Z,2.60
2017-08-23T09:01:00.613Z,3.07
2017-08-23T09:03:27.830Z,2.90
2017-08-23T09:05:56.121Z,2.90
2017-08-23T09:08:23.336Z,2.90
2017-08-23T09:10:50.562Z,2.63
2017-08-23T09:13:19.725Z,2.80
2017-08-23T09:15:46.948Z,2.77
2017-08-23T09:18:14.164Z,2.90
2017-08-23T09:20:41.385Z,2.60
2017-08-23T09:23:08.605Z,2.93
2017-08-23T09:25:35.632Z,3.37
2017-08-23T09:28:02.848Z,2.80
2017-08-23T09:30:30.068Z,3.10
2017-08-23T09:32:57.289Z,3.20
2017-08-23T09:35:24.512Z,3.53
2017-08-23T09:37:51.733Z,3.17
2017-08-23T09:40:18.953Z,2.23
2017-08-23T09:42:46.190Z,2.20
2017-08-23T09:45:13.426Z,2.70
2017-08-23T09:47:40.648Z,2.37
2017-08-23T09:50:07.866Z,2.40
2017-08-23T09:52:37.023Z,2.30
2017-08-23T09:55:04.244Z,2.53
2017-08-23T09:57:31.464Z,2.90
2017-08-23T09:59:58.680Z,3.07
2017-08-23T10:02:25.900Z,2.93
2017-08-23T10:04:53.121Z,2.10
2017-08-23T10:07:20.340Z,2.50
2017-08-23T10:09:49.517Z,2.90
2017-08-23T10:12:16.733Z,2.80
2017-08-23T10:14:43.963Z,2.73
2017-08-23T10:17:12.916Z,2.47
2017-08-23T10:19:40.138Z,2.67
2017-08-23T10:22:07.353Z,2.53
2017-08-23T10:24:34.570Z,3.10
2017-08-23T10:27:03.746Z,2.27
2017-08-23T10:29:30.956Z,2.23
2017-08-23T10:31:58.177Z,2.50
2017-08-23T10:34:27.365Z,2.87
2017-08-23T10:36:54.584Z,2.70
2017-08-23T10:39:21.804Z,2.20
2017-08-23T10:41:49.016Z,2.40
2017-08-23T10:44:16.229Z,2.33
2017-08-23T10:46:43.449Z,2.97
2017-08-23T10:49:10.671Z,2.37
2017-08-23T10:51:37.890Z,2.30
2017-08-23T10:54:05.100Z,2.43
2017-08-23T10:56:32.328Z,2.90
2017-08-23T10:58:59.557Z,2.00
2017-08-23T11:01:26.781Z,2.80
2017-08-23T11:03:53.996Z,2.47
2017-08-23T11:06:21.222Z,2.63
2017-08-23T11:08:48.440Z,2.70
2017-08-23T11:11:15.656Z,2.60
2017-08-23T11:13:42.877Z,2.87
2017-08-23T11:16:10.091Z,2.33
2017-08-23T11:18:37.313Z,2.10
2017-08-23T11:21:06.469Z,2.57
2017-08-23T11:23:33.685Z,2.67
2017-08-23T11:26:00.910Z,2.63
2017-08-23T11:28:28.128Z,2.57
2017-08-23T11:30:55.349Z,2.37
2017-08-23T11:33:22.566Z,2.10
2017-08-23T11:35:49.784Z,2.50
2017-08-23T11:38:16.996Z,2.23
2017-08-23T11:40:44.218Z,2.70
2017-08-23T11:43:13.396Z,2.43
2017-08-23T11:45:40.620Z,2.70
2017-08-23T11:48:07.836Z,2.40
2017-08-23T11:50:35.062Z,2.70
2017-08-23T11:53:02.293Z,2.73
2017-08-23T11:55:29.517Z,2.33
2017-08-23T11:57:56.737Z,2.57
2017-08-23T12:00:23.969Z,2.63
2017-08-23T12:02:53.133Z,2.80
2017-08-23T12:05:20.353Z,2.37
2017-08-23T12:07:49.536Z,2.63
2017-08-23T12:10:16.756Z,2.47
2017-08-23T12:12:43.971Z,2.73
2017-08-23T12:15:11.196Z,2.60
2017-08-23T12:17:38.418Z,2.30
2017-08-23T12:20:05.628Z,2.60
2017-08-23T12:22:32.844Z,2.60
2017-08-23T12:25:00.064Z,2.77
2017-08-23T12:27:27.290Z,2.33
2017-08-23T12:29:54.509Z,2.70
2017-08-23T12:32:23.717Z,2.50
2017-08-23T12:34:50.936Z,2.43
2017-08-23T12:37:18.153Z,2.00
2017-08-23T12:39:45.376Z,2.77
2017-08-23T12:42:12.592Z,2.87
2017-08-23T12:44:39.816Z,2.20
2017-08-23T12:47:07.041Z,2.57
2017-08-23T12:49:34.269Z,2.37
2017-08-23T12:52:01.501Z,1.90
2017-08-23T12:54:28.722Z,2.07
2017-08-23T12:56:55.945Z,2.13
2017-08-23T12:59:23.169Z,2.50
2017-08-23T13:01:50.390Z,1.90
2017-08-23T13:04:17.612Z,1.90
2017-08-23T13:06:44.831Z,2.20
2017-08-23T13:09:12.060Z,2.10
2017-08-23T13:11:39.280Z,1.93
2017-08-23T13:14:06.504Z,1.97
2017-08-23T13:16:33.738Z,1.90
2017-08-23T13:19:00.968Z,2.80
2017-08-23T13:21:28.194Z,2.10
2017-08-23T13:23:55.412Z,1.67
2017-08-23T13:26:22.632Z,2.23
2017-08-23T13:28:51.792Z,2.00
2017-08-23T13:31:19.016Z,1.97
2017-08-23T13:33:46.237Z,1.90
2017-08-23T13:36:13.452Z,1.90
2017-08-23T13:38:40.676Z,2.03
2017-08-23T13:41:07.900Z,1.90
2017-08-23T13:43:35.950Z,1.70
2017-08-23T13:46:03.170Z,2.20
2017-08-23T13:48:30.388Z,1.50
2017-08-23T13:50:57.604Z,1.90
2017-08-23T13:53:24.824Z,2.10
2017-08-23T13:55:53.980Z,1.80
2017-08-23T13:58:21.304Z,2.10
2017-08-23T14:00:48.470Z,1.77
2017-08-23T14:03:15.688Z,2.27
2017-08-23T14:05:42.909Z,2.07
2017-08-23T14:08:10.132Z,2.20
2017-08-23T14:10:37.350Z,2.13
2017-08-23T14:13:04.568Z,2.30
2017-08-23T14:15:31.799Z,1.80
2017-08-23T14:18:00.973Z,1.80
2017-08-23T14:20:28.193Z,1.87
2017-08-23T14:22:55.419Z,1.80
2017-08-23T14:25:22.648Z,2.10
2017-08-23T14:27:49.864Z,1.83
2017-08-23T14:30:17.081Z,2.27
2017-08-23T14:32:44.355Z,2.13
2017-08-23T14:35:11.569Z,1.97
2017-08-23T14:37:38.788Z,1.80
2017-08-23T14:40:06.008Z,2.20
2017-08-23T14:42:33.220Z,2.47
2017-08-23T14:45:00.445Z,2.03
2017-08-23T14:47:27.665Z,2.37
2017-08-23T14:49:54.890Z,2.40
2017-08-23T14:52:22.113Z,2.13
2017-08-23T14:54:49.352Z,2.23
2017-08-23T14:57:16.577Z,2.30
2017-08-23T14:59:43.801Z,1.80
2017-08-23T15:02:11.012Z,2.10
2017-08-23T15:04:38.233Z,1.90
2017-08-23T15:07:05.448Z,1.63
2017-08-23T15:12:00.805Z,2.47
2017-08-23T15:14:28.024Z,2.70
2017-08-23T15:16:55.252Z,2.20
2017-08-23T15:19:22.477Z,1.90
2017-08-23T15:21:49.719Z,2.40
2017-08-23T15:24:16.941Z,2.40
2017-08-23T15:26:44.165Z,2.90
2017-08-23T15:29:11.386Z,1.73
2017-08-23T15:31:38.607Z,2.10
2017-08-23T15:34:05.827Z,2.13
2017-08-23T15:36:33.048Z,2.00
2017-08-23T15:39:00.269Z,2.33
2017-08-23T15:41:27.488Z,2.10
2017-08-23T15:43:54.712Z,1.97
2017-08-23T15:46:21.925Z,2.17
2017-08-23T15:48:49.149Z,1.60
2017-08-23T15:51:16.368Z,2.10
2017-08-23T15:53:45.504Z,2.17
2017-08-23T15:56:12.726Z,2.00
2017-08-23T15:58:39.972Z,2.10
2017-08-23T16:01:07.201Z,2.17
2017-08-23T16:03:34.416Z,2.10
2017-08-23T16:06:01.641Z,2.27
2017-08-23T16:08:28.861Z,2.13
2017-08-23T16:10:56.081Z,2.40
2017-08-23T16:13:23.118Z,2.10
2017-08-23T16:15:50.345Z,2.40
2017-08-23T16:18:17.566Z,1.90
2017-08-23T16:20:44.787Z,2.30
2017-08-23T16:23:13.974Z,2.70
2017-08-23T16:25:41.256Z,2.30
2017-08-23T16:28:08.481Z,2.40
2017-08-23T16:30:35.713Z,2.23
2017-08-23T16:33:02.940Z,2.13
2017-08-23T16:35:30.157Z,2.13
2017-08-23T16:37:57.368Z,2.30
2017-08-23T16:40:24.594Z,2.17
2017-08-23T16:42:51.829Z,2.77
2017-08-23T16:45:19.057Z,2.50
2017-08-23T16:47:46.292Z,2.63
2017-08-23T16:50:15.433Z,2.13
2017-08-23T16:52:42.668Z,2.00
2017-08-23T16:55:09.883Z,2.60
2017-08-23T16:57:37.105Z,2.20
2017-08-23T17:00:04.353Z,2.50
2017-08-23T17:02:31.575Z,1.90
2017-08-23T17:04:58.804Z,2.57
2017-08-23T17:07:26.031Z,1.93
2017-08-23T17:09:55.226Z,2.20
2017-08-23T17:12:22.476Z,2.20
2017-08-23T17:14:49.698Z,2.47
2017-08-23T17:17:16.919Z,3.20
2017-08-23T17:19:44.145Z,2.90
2017-08-23T17:22:11.380Z,2.20
2017-08-23T17:24:38.600Z,3.00
2017-08-23T17:27:05.827Z,2.43
2017-08-23T17:29:33.048Z,2.70
2017-08-23T17:32:00.272Z,3.10
2017-08-23T17:34:27.488Z,3.17
2017-08-23T17:36:54.709Z,3.70
2017-08-23T17:39:21.938Z,3.87
2017-08-23T17:41:49.154Z,2.93
2017-08-23T17:44:16.376Z,2.90
2017-08-23T17:46:45.556Z,3.57
2017-08-23T17:49:12.781Z,2.60
2017-08-23T17:51:40.036Z,3.20
2017-08-23T17:54:07.256Z,2.60
2017-08-23T17:56:36.395Z,3.77
2017-08-23T17:59:03.616Z,3.10
2017-08-23T18:01:30.845Z,3.37
2017-08-23T18:03:59.976Z,3.50
2017-08-23T18:06:27.206Z,3.20
2017-08-23T18:08:54.441Z,3.33
2017-08-23T18:11:21.664Z,2.80
2017-08-23T18:13:48.880Z,3.20
2017-08-23T18:16:16.093Z,3.10
2017-08-23T18:18:43.320Z,3.20
2017-08-23T18:21:10.549Z,3.50
2017-08-23T18:23:37.787Z,4.80
2017-08-23T18:26:05.005Z,4.83
2017-08-23T18:28:32.234Z,5.90
2017-08-23T18:30:59.463Z,4.13
2017-08-23T18:33:28.613Z,3.20
2017-08-23T18:35:55.837Z,3.40
2017-08-23T18:38:23.064Z,4.13
2017-08-23T18:40:52.260Z,5.07
2017-08-23T18:43:19.300Z,5.10
2017-08-23T18:45:46.560Z,3.67
2017-08-23T18:48:13.785Z,4.10
2017-08-23T18:50:41.019Z,3.30
2017-08-23T18:53:08.245Z,3.57
2017-08-23T18:55:35.464Z,3.80
2017-08-23T18:58:02.688Z,3.50
2017-08-23T19:00:29.913Z,3.53
2017-08-23T19:02:57.145Z,3.20
2017-08-23T19:05:24.381Z,4.20
2017-08-23T19:07:51.600Z,3.97
2017-08-23T19:10:18.817Z,3.33
2017-08-23T19:12:45.849Z,3.87
2017-08-23T19:15:13.064Z,3.70
2017-08-23T19:17:40.288Z,3.73
2017-08-23T19:20:07.525Z,4.83
2017-08-23T19:22:35.585Z,3.80
2017-08-23T19:25:02.812Z,4.03
2017-08-23T19:27:31.973Z,3.50
2017-08-23T19:29:59.192Z,4.33
2017-08-23T19:32:26.428Z,4.33
2017-08-23T19:34:53.658Z,4.20
2017-08-23T19:37:22.799Z,3.60
2017-08-23T19:39:50.028Z,3.97
2017-08-23T19:42:17.257Z,4.30
2017-08-23T19:44:44.500Z,3.87
2017-08-23T19:47:11.723Z,4.13
2017-08-23T19:49:38.958Z,4.23
2017-08-23T19:52:06.176Z,3.93
2017-08-23T19:54:34.498Z,3.80
2017-08-23T19:57:01.718Z,3.90
2017-08-23T19:59:28.925Z,4.10
2017-08-23T20:01:56.158Z,3.90
2017-08-23T20:04:23.381Z,3.90
2017-08-23T20:06:50.611Z,4.63
2017-08-23T20:09:17.655Z,4.83
2017-08-23T20:11:44.877Z,4.27
2017-08-23T20:14:12.108Z,4.63
2017-08-23T20:16:39.328Z,4.50
2017-08-23T20:19:08.520Z,4.63
2017-08-23T20:21:35.740Z,4.97
2017-08-23T20:24:02.960Z,4.97
2017-08-23T20:26:30.197Z,4.70
2017-08-23T20:28:57.422Z,4.67
2017-08-23T20:31:24.697Z,4.37
2017-08-23T20:33:51.924Z,5.53
2017-08-23T20:36:19.133Z,5.00
2017-08-23T20:38:46.425Z,5.57
2017-08-23T20:41:13.650Z,5.57
2017-08-23T20:43:40.871Z,4.60
2017-08-23T20:46:08.074Z,5.67
2017-08-23T20:48:35.281Z,6.10
2017-08-23T20:51:02.522Z,5.80
2017-08-23T20:53:29.729Z,5.00
2017-08-23T20:55:56.937Z,6.60
2017-08-23T20:58:24.139Z,5.73
2017-08-23T21:00:51.340Z,4.83
2017-08-23T21:03:20.520Z,5.90
2017-08-23T21:05:47.721Z,6.27
2017-08-23T21:08:14.928Z,6.00
2017-08-23T21:10:42.145Z,5.80
2017-08-23T21:13:09.357Z,5.73
2017-08-23T21:15:36.583Z,5.87
2017-08-23T21:18:03.784Z,6.13
2017-08-23T21:20:31.001Z,5.70
2017-08-23T21:22:58.200Z,5.20
2017-08-23T21:25:25.428Z,5.20
2017-08-23T21:27:52.665Z,5.80
2017-08-23T21:30:19.866Z,5.43
2017-08-23T21:32:47.064Z,4.67
2017-08-23T21:35:14.259Z,5.50
2017-08-23T21:37:41.493Z,5.37
2017-08-23T21:40:10.629Z,5.63
2017-08-23T21:42:37.832Z,5.20
2017-08-23T21:45:05.040Z,5.33
2017-08-23T21:47:32.240Z,5.20
2017-08-23T21:49:59.445Z,5.40
2017-08-23T21:52:26.673Z,6.83
2017-08-23T21:54:54.857Z,5.27
2017-08-23T21:57:22.189Z,5.93
2017-08-23T21:59:49.412Z,6.43
2017-08-23T22:02:17.569Z,5.93
2017-08-23T22:04:46.025Z,5.50
2017-08-23T22:07:13.228Z,5.70
2017-08-23T22:09:41.386Z,5.83
2017-08-23T22:12:08.588Z,6.27
2017-08-23T22:14:35.825Z,5.30
2017-08-23T22:17:03.062Z,5.77
2017-08-23T22:19:30.283Z,6.87
2017-08-23T22:21:57.485Z,5.40
2017-08-23T22:24:26.685Z,5.57
2017-08-23T22:26:53.909Z,5.40
2017-08-23T22:29:21.127Z,5.43
2017-08-23T22:31:49.252Z,6.10
2017-08-23T22:34:16.448Z,5.07
2017-08-23T22:36:43.652Z,6.83
2017-08-23T22:39:10.854Z,5.43
2017-08-23T22:41:38.062Z,6.70
2017-08-23T22:44:05.285Z,6.20
2017-08-23T22:46:32.487Z,4.97
2017-08-23T22:48:59.691Z,5.20
2017-08-23T22:51:26.888Z,4.83
2017-08-23T22:53:54.090Z,5.60
2017-08-23T22:56:21.308Z,4.73
2017-08-23T22:58:48.523Z,5.30
2017-08-23T23:01:15.726Z,5.20
2017-08-23T23:03:42.929Z,5.60
2017-08-23T23:06:10.136Z,4.97
2017-08-23T23:08:37.352Z,5.70
2017-08-23T23:11:04.549Z,6.00
2017-08-23T23:13:31.764Z,6.00
2017-08-23T23:15:58.970Z,5.73
2017-08-23T23:18:26.173Z,5.47
2017-08-23T23:20:53.400Z,5.40
2017-08-23T23:23:20.600Z,4.80
2017-08-23T23:25:47.820Z,5.30
2017-08-23T23:28:15.024Z,6.17
2017-08-23T23:30:42.233Z,5.20
2017-08-23T23:33:09.457Z,5.10
2017-08-23T23:35:36.661Z,5.90
2017-08-23T23:38:03.859Z,5.77
2017-08-23T23:40:31.060Z,5.10
2017-08-23T23:42:58.261Z,5.90
2017-08-23T23:45:25.481Z,5.47
2017-08-23T23:47:52.685Z,5.50
2017-08-23T23:50:19.885Z,4.60
2017-08-23T23:52:47.085Z,5.20
2017-08-23T23:55:14.293Z,5.13
2017-08-23T23:57:41.512Z,5.90
